Aviation Digital Data Service (ADDS)

Output produced by METARs form (2023 UTC 23 September 2014)
found at http://aviationweather.gov/adds/metars/
 
KISP 231727Z 2318/2418 34007KT P6SM SCT250 
     FM232000 VRB05KT P6SM SCT250 
     FM240900 04007KT P6SM FEW250 
     FM241500 09011G18KT P6SM SCT030 SCT250